sensor_id;sensor_type;location;lat;lon;timestamp;pressure;altitude;pressure_sealevel;temperature;humidity
32452;BME280;45528;52.102;5.242;2023-07-31T00:00:20;100551.0;;;22.11;68.83
32452;BME280;45528;52.102;5.242;2023-07-31T00:01:57;100550.0;;;22.1;69.05
32452;BME280;45528;52.102;5.242;2023-07-31T00:05:10;100546.0;;;22.15;68.86
32452;BME280;45528;52.102;5.242;2023-07-31T00:06:47;100539.0;;;22.16;68.83
32452;BME280;45528;52.102;5.242;2023-07-31T00:08:24;100539.0;;;22.14;68.64
32452;BME280;45528;52.102;5.242;2023-07-31T00:11:38;100539.0;;;22.15;68.94
32452;BME280;45528;52.102;5.242;2023-07-31T00:13:15;100532.0;;;22.3;68.42
32452;BME280;45528;52.102;5.242;2023-07-31T00:14:51;100532.0;;;22.24;68.53
32452;BME280;45528;52.102;5.242;2023-07-31T00:18:05;100525.0;;;22.22;68.83
32452;BME280;45528;52.102;5.242;2023-07-31T00:19:42;100528.0;;;22.25;68.83
32452;BME280;45528;52.102;5.242;2023-07-31T00:21:20;100521.0;;;22.23;68.99
32452;BME280;45528;52.102;5.242;2023-07-31T00:22:57;100522.0;;;21.97;69.77
32452;BME280;45528;52.102;5.242;2023-07-31T00:26:10;100523.0;;;22.3;69.05
32452;BME280;45528;52.102;5.242;2023-07-31T00:27:47;100520.0;;;22.39;69.36
32452;BME280;45528;52.102;5.242;2023-07-31T00:29:23;100521.0;;;22.44;69.42
32452;BME280;45528;52.102;5.242;2023-07-31T00:32:38;100520.0;;;22.52;69.3
32452;BME280;45528;52.102;5.242;2023-07-31T00:34:14;100514.0;;;22.34;70.44
32452;BME280;45528;52.102;5.242;2023-07-31T00:35:51;100516.0;;;22.64;69.8
32452;BME280;45528;52.102;5.242;2023-07-31T00:37:28;100515.0;;;22.76;69.55
32452;BME280;45528;52.102;5.242;2023-07-31T00:40:41;100514.0;;;22.73;69.95
32452;BME280;45528;52.102;5.242;2023-07-31T00:42:18;100509.0;;;22.39;70.91
32452;BME280;45528;52.102;5.242;2023-07-31T00:43:54;100521.0;;;22.81;69.86
32452;BME280;45528;52.102;5.242;2023-07-31T00:47:08;100524.0;;;22.83;70.14
32452;BME280;45528;52.102;5.242;2023-07-31T00:48:45;100512.0;;;23.02;69.16
32452;BME280;45528;52.102;5.242;2023-07-31T00:50:24;100517.0;;;23.0;69.52
32452;BME280;45528;52.102;5.242;2023-07-31T00:53:37;100515.0;;;22.92;70.0
32452;BME280;45528;52.102;5.242;2023-07-31T00:55:14;100515.0;;;23.0;69.45
32452;BME280;45528;52.102;5.242;2023-07-31T00:56:52;100513.0;;;23.04;69.36
32452;BME280;45528;52.102;5.242;2023-07-31T00:58:30;100516.0;;;23.2;68.83
32452;BME280;45528;52.102;5.242;2023-07-31T01:01:46;100516.0;;;23.23;68.73
32452;BME280;45528;52.102;5.242;2023-07-31T01:03:23;100508.0;;;23.31;68.37
32452;BME280;45528;52.102;5.242;2023-07-31T01:05:00;100508.0;;;22.59;70.89
32452;BME280;45528;52.102;5.242;2023-07-31T01:08:33;100507.0;;;22.86;69.91
32452;BME280;45528;52.102;5.242;2023-07-31T01:10:27;100519.0;;;22.95;69.36
32452;BME280;45528;52.102;5.242;2023-07-31T01:12:12;100518.0;;;23.12;69.36
32452;BME280;45528;52.102;5.242;2023-07-31T01:13:50;100514.0;;;23.26;68.86
32452;BME280;45528;52.102;5.242;2023-07-31T01:15:27;100503.0;;;22.92;69.27
32452;BME280;45528;52.102;5.242;2023-07-31T01:18:41;100514.0;;;23.32;68.53
32452;BME280;45528;52.102;5.242;2023-07-31T01:20:21;100511.0;;;23.31;68.64
32452;BME280;45528;52.102;5.242;2023-07-31T01:22:12;100511.0;;;23.36;68.27
32452;BME280;45528;52.102;5.242;2023-07-31T01:24:19;100515.0;;;23.38;68.16
32452;BME280;45528;52.102;5.242;2023-07-31T01:26:23;100513.0;;;23.24;68.91
32452;BME280;45528;52.102;5.242;2023-07-31T01:28:07;100511.0;;;23.3;68.47
32452;BME280;45528;52.102;5.242;2023-07-31T01:29:56;100517.0;;;23.28;68.41
32452;BME280;45528;52.102;5.242;2023-07-31T01:33:15;100509.0;;;23.28;68.33
32452;BME280;45528;52.102;5.242;2023-07-31T01:34:53;100508.0;;;23.13;68.87
32452;BME280;45528;52.102;5.242;2023-07-31T01:36:31;100505.0;;;23.03;69.47
32452;BME280;45528;52.102;5.242;2023-07-31T01:38:08;100512.0;;;23.14;69.11
32452;BME280;45528;52.102;5.242;2023-07-31T01:41:21;100507.0;;;23.09;69.27
32452;BME280;45528;52.102;5.242;2023-07-31T01:42:57;100507.0;;;22.99;68.87
32452;BME280;45528;52.102;5.242;2023-07-31T01:44:35;100508.0;;;23.12;68.77
32452;BME280;45528;52.102;5.242;2023-07-31T01:47:48;100511.0;;;23.17;68.78
32452;BME280;45528;52.102;5.242;2023-07-31T01:49:25;100510.0;;;23.06;69.27
32452;BME280;45528;52.102;5.242;2023-07-31T01:51:01;100506.0;;;23.0;69.36
32452;BME280;45528;52.102;5.242;2023-07-31T01:54:16;100507.0;;;23.15;68.87
32452;BME280;45528;52.102;5.242;2023-07-31T01:55:52;100505.0;;;23.05;69.31
32452;BME280;45528;52.102;5.242;2023-07-31T01:57:28;100509.0;;;23.04;69.14
32452;BME280;45528;52.102;5.242;2023-07-31T01:59:04;100490.0;;;23.02;69.13
32452;BME280;45528;52.102;5.242;2023-07-31T02:02:18;100492.0;;;22.55;70.16
32452;BME280;45528;52.102;5.242;2023-07-31T02:03:55;100495.0;;;22.95;69.03
32452;BME280;45528;52.102;5.242;2023-07-31T02:05:32;100488.0;;;22.81;69.67
32452;BME280;45528;52.102;5.242;2023-07-31T02:08:45;100482.0;;;22.84;69.52
32452;BME280;45528;52.102;5.242;2023-07-31T02:10:23;100485.0;;;22.85;69.11
32452;BME280;45528;52.102;5.242;2023-07-31T02:12:01;100471.0;;;22.79;69.19
32452;BME280;45528;52.102;5.242;2023-07-31T02:15:13;100475.0;;;22.85;69.0
32452;BME280;45528;52.102;5.242;2023-07-31T02:16:50;100473.0;;;22.94;68.7
32452;BME280;45528;52.102;5.242;2023-07-31T02:18:26;100455.0;;;22.74;69.36
32452;BME280;45528;52.102;5.242;2023-07-31T02:20:04;100455.0;;;23.01;68.42
32452;BME280;45528;52.102;5.242;2023-07-31T02:23:18;100459.0;;;22.94;68.25
32452;BME280;45528;52.102;5.242;2023-07-31T02:24:55;100455.0;;;22.95;68.44
32452;BME280;45528;52.102;5.242;2023-07-31T02:26:31;100448.0;;;22.74;69.2
32452;BME280;45528;52.102;5.242;2023-07-31T02:29:45;100457.0;;;22.82;68.99
32452;BME280;45528;52.102;5.242;2023-07-31T02:31:21;100452.0;;;22.64;69.58
32452;BME280;45528;52.102;5.242;2023-07-31T02:32:58;100456.0;;;22.89;68.7
32452;BME280;45528;52.102;5.242;2023-07-31T02:34:35;100455.0;;;22.98;68.25
32452;BME280;45528;52.102;5.242;2023-07-31T02:37:49;100455.0;;;22.74;68.74
32452;BME280;45528;52.102;5.242;2023-07-31T02:39:26;100463.0;;;22.81;69.16
32452;BME280;45528;52.102;5.242;2023-07-31T02:41:03;100451.0;;;22.62;69.62
32452;BME280;45528;52.102;5.242;2023-07-31T02:44:16;100453.0;;;22.68;69.47
32452;BME280;45528;52.102;5.242;2023-07-31T02:45:53;100453.0;;;22.86;68.49
32452;BME280;45528;52.102;5.242;2023-07-31T02:47:29;100453.0;;;22.75;69.23
32452;BME280;45528;52.102;5.242;2023-07-31T02:50:42;100453.0;;;22.79;69.24
32452;BME280;45528;52.102;5.242;2023-07-31T02:52:18;100449.0;;;22.81;69.3
32452;BME280;45528;52.102;5.242;2023-07-31T02:53:55;100442.0;;;22.84;68.53
32452;BME280;45528;52.102;5.242;2023-07-31T02:55:31;100440.0;;;22.63;68.97
32452;BME280;45528;52.102;5.242;2023-07-31T02:58:45;100435.0;;;22.91;68.45
32452;BME280;45528;52.102;5.242;2023-07-31T03:00:21;100434.0;;;23.02;68.02
32452;BME280;45528;52.102;5.242;2023-07-31T03:01:58;100436.0;;;22.62;69.61
32452;BME280;45528;52.102;5.242;2023-07-31T03:05:12;100439.0;;;22.99;68.11
32452;BME280;45528;52.102;5.242;2023-07-31T03:06:49;100438.0;;;22.73;69.33
32452;BME280;45528;52.102;5.242;2023-07-31T03:08:26;100443.0;;;22.91;68.22
32452;BME280;45528;52.102;5.242;2023-07-31T03:11:40;100436.0;;;22.88;68.55
32452;BME280;45528;52.102;5.242;2023-07-31T03:13:17;100432.0;;;22.87;68.47
32452;BME280;45528;52.102;5.242;2023-07-31T03:14:54;100437.0;;;22.85;68.69
32452;BME280;45528;52.102;5.242;2023-07-31T03:16:31;100430.0;;;22.68;68.89
32452;BME280;45528;52.102;5.242;2023-07-31T03:19:45;100436.0;;;22.75;68.97
32452;BME280;45528;52.102;5.242;2023-07-31T03:21:21;100431.0;;;22.95;68.41
32452;BME280;45528;52.102;5.242;2023-07-31T03:22:58;100434.0;;;23.0;67.89
32452;BME280;45528;52.102;5.242;2023-07-31T03:26:11;100434.0;;;23.03;67.75
32452;BME280;45528;52.102;5.242;2023-07-31T03:27:48;100432.0;;;22.67;69.02
32452;BME280;45528;52.102;5.242;2023-07-31T03:29:26;100430.0;;;22.94;67.81
32452;BME280;45528;52.102;5.242;2023-07-31T03:32:38;100441.0;;;22.92;67.83
32452;BME280;45528;52.102;5.242;2023-07-31T03:34:15;100436.0;;;22.94;67.55
32452;BME280;45528;52.102;5.242;2023-07-31T03:35:52;100435.0;;;22.85;67.81
32452;BME280;45528;52.102;5.242;2023-07-31T03:37:29;100437.0;;;22.93;67.6
32452;BME280;45528;52.102;5.242;2023-07-31T03:40:42;100430.0;;;22.77;67.72
32452;BME280;45528;52.102;5.242;2023-07-31T03:42:19;100430.0;;;22.84;67.7
32452;BME280;45528;52.102;5.242;2023-07-31T03:43:56;100430.0;;;22.86;67.37
32452;BME280;45528;52.102;5.242;2023-07-31T03:47:11;100428.0;;;22.68;67.94
32452;BME280;45528;52.102;5.242;2023-07-31T03:48:47;100422.0;;;22.74;67.77
32452;BME280;45528;52.102;5.242;2023-07-31T03:50:24;100422.0;;;22.78;67.62
32452;BME280;45528;52.102;5.242;2023-07-31T03:52:00;100422.0;;;22.8;67.47
32452;BME280;45528;52.102;5.242;2023-07-31T03:55:15;100419.0;;;22.87;67.33
32452;BME280;45528;52.102;5.242;2023-07-31T03:56:51;100422.0;;;22.74;67.47
32452;BME280;45528;52.102;5.242;2023-07-31T03:58:27;100417.0;;;22.72;67.72
32452;BME280;45528;52.102;5.242;2023-07-31T04:01:43;100423.0;;;22.8;67.22
32452;BME280;45528;52.102;5.242;2023-07-31T04:03:19;100417.0;;;22.72;67.5
32452;BME280;45528;52.102;5.242;2023-07-31T04:04:56;100408.0;;;22.63;67.12
32452;BME280;45528;52.102;5.242;2023-07-31T04:08:09;100406.0;;;22.56;67.25
32452;BME280;45528;52.102;5.242;2023-07-31T04:09:47;100403.0;;;22.81;67.36
32452;BME280;45528;52.102;5.242;2023-07-31T04:11:23;100398.0;;;22.88;66.75
32452;BME280;45528;52.102;5.242;2023-07-31T04:13:00;100401.0;;;22.83;66.83
32452;BME280;45528;52.102;5.242;2023-07-31T04:16:13;100399.0;;;22.51;67.92
32452;BME280;45528;52.102;5.242;2023-07-31T04:17:50;100390.0;;;22.55;67.66
32452;BME280;45528;52.102;5.242;2023-07-31T04:19:26;100384.0;;;22.37;67.91
32452;BME280;45528;52.102;5.242;2023-07-31T04:22:40;100384.0;;;22.63;67.52
32452;BME280;45528;52.102;5.242;2023-07-31T04:24:17;100383.0;;;22.87;66.67
32452;BME280;45528;52.102;5.242;2023-07-31T04:25:54;100375.0;;;22.68;66.92
32452;BME280;45528;52.102;5.242;2023-07-31T04:29:08;100378.0;;;22.68;67.24
32452;BME280;45528;52.102;5.242;2023-07-31T04:30:45;100387.0;;;22.6;67.06
32452;BME280;45528;52.102;5.242;2023-07-31T04:32:23;100374.0;;;22.44;67.5
32452;BME280;45528;52.102;5.242;2023-07-31T04:33:59;100386.0;;;22.39;67.99
32452;BME280;45528;52.102;5.242;2023-07-31T04:37:12;100384.0;;;22.53;67.48
32452;BME280;45528;52.102;5.242;2023-07-31T04:38:50;100383.0;;;22.54;67.69
32452;BME280;45528;52.102;5.242;2023-07-31T04:40:27;100382.0;;;22.69;67.19
32452;BME280;45528;52.102;5.242;2023-07-31T04:43:40;100384.0;;;22.34;68.41
32452;BME280;45528;52.102;5.242;2023-07-31T04:45:17;100380.0;;;22.7;67.22
32452;BME280;45528;52.102;5.242;2023-07-31T04:46:54;100383.0;;;22.03;68.98
32452;BME280;45528;52.102;5.242;2023-07-31T04:48:31;100376.0;;;22.19;68.97
32452;BME280;45528;52.102;5.242;2023-07-31T04:51:45;100380.0;;;22.57;67.56
32452;BME280;45528;52.102;5.242;2023-07-31T04:53:21;100380.0;;;22.69;67.06
32452;BME280;45528;52.102;5.242;2023-07-31T04:54:58;100371.0;;;22.66;67.11
32452;BME280;45528;52.102;5.242;2023-07-31T04:58:12;100369.0;;;22.56;67.59
32452;BME280;45528;52.102;5.242;2023-07-31T04:59:49;100364.0;;;22.68;67.24
32452;BME280;45528;52.102;5.242;2023-07-31T05:01:25;100368.0;;;22.71;67.23
32452;BME280;45528;52.102;5.242;2023-07-31T05:04:38;100360.0;;;22.68;67.22
32452;BME280;45528;52.102;5.242;2023-07-31T05:06:16;100358.0;;;22.65;67.41
32452;BME280;45528;52.102;5.242;2023-07-31T05:07:53;100365.0;;;22.7;67.16
32452;BME280;45528;52.102;5.242;2023-07-31T05:09:30;100361.0;;;22.56;67.8
32452;BME280;45528;52.102;5.242;2023-07-31T05:12:44;100351.0;;;22.53;67.78
32452;BME280;45528;52.102;5.242;2023-07-31T05:14:21;100359.0;;;22.65;67.33
32452;BME280;45528;52.102;5.242;2023-07-31T05:15:58;100357.0;;;22.61;67.45
32452;BME280;45528;52.102;5.242;2023-07-31T05:19:12;100352.0;;;22.35;68.37
32452;BME280;45528;52.102;5.242;2023-07-31T05:20:49;100355.0;;;22.47;67.92
32452;BME280;45528;52.102;5.242;2023-07-31T05:22:26;100352.0;;;22.53;67.87
32452;BME280;45528;52.102;5.242;2023-07-31T05:24:05;100342.0;;;22.53;67.85
32452;BME280;45528;52.102;5.242;2023-07-31T05:27:18;100345.0;;;22.53;68.0
32452;BME280;45528;52.102;5.242;2023-07-31T05:28:56;100344.0;;;22.39;68.44
32452;BME280;45528;52.102;5.242;2023-07-31T05:30:32;100339.0;;;22.46;68.44
32452;BME280;45528;52.102;5.242;2023-07-31T05:33:45;100340.0;;;22.5;68.14
32452;BME280;45528;52.102;5.242;2023-07-31T05:35:21;100334.0;;;22.38;68.5
32452;BME280;45528;52.102;5.242;2023-07-31T05:36:57;100335.0;;;22.38;68.66
32452;BME280;45528;52.102;5.242;2023-07-31T05:40:12;100331.0;;;22.46;68.31
32452;BME280;45528;52.102;5.242;2023-07-31T05:41:49;100330.0;;;22.44;68.37
32452;BME280;45528;52.102;5.242;2023-07-31T05:43:26;100324.0;;;22.46;68.25
32452;BME280;45528;52.102;5.242;2023-07-31T05:45:04;100322.0;;;22.51;68.03
32452;BME280;45528;52.102;5.242;2023-07-31T05:48:18;100320.0;;;22.56;67.91
32452;BME280;45528;52.102;5.242;2023-07-31T05:49:55;100317.0;;;22.3;68.78
32452;BME280;45528;52.102;5.242;2023-07-31T05:51:32;100312.0;;;22.31;68.88
32452;BME280;45528;52.102;5.242;2023-07-31T05:54:45;100315.0;;;22.4;68.61
32452;BME280;45528;52.102;5.242;2023-07-31T05:56:22;100313.0;;;22.47;68.3
32452;BME280;45528;52.102;5.242;2023-07-31T05:57:59;100311.0;;;22.52;68.12
32452;BME280;45528;52.102;5.242;2023-07-31T05:59:37;100309.0;;;22.49;68.22
32452;BME280;45528;52.102;5.242;2023-07-31T06:02:49;100303.0;;;22.36;68.66
32452;BME280;45528;52.102;5.242;2023-07-31T06:04:26;100310.0;;;22.41;68.56
32452;BME280;45528;52.102;5.242;2023-07-31T06:06:02;100300.0;;;22.37;68.58
32452;BME280;45528;52.102;5.242;2023-07-31T06:09:17;100305.0;;;22.34;69.05
32452;BME280;45528;52.102;5.242;2023-07-31T06:10:53;100300.0;;;22.53;68.36
32452;BME280;45528;52.102;5.242;2023-07-31T06:12:29;100301.0;;;22.46;68.47
32452;BME280;45528;52.102;5.242;2023-07-31T06:15:43;100296.0;;;22.41;68.94
32452;BME280;45528;52.102;5.242;2023-07-31T06:17:20;100295.0;;;22.39;68.95
32452;BME280;45528;52.102;5.242;2023-07-31T06:18:57;100290.0;;;22.37;69.11
32452;BME280;45528;52.102;5.242;2023-07-31T06:20:34;100291.0;;;22.25;69.8
32452;BME280;45528;52.102;5.242;2023-07-31T06:23:47;100286.0;;;22.34;69.36
32452;BME280;45528;52.102;5.242;2023-07-31T06:25:24;100295.0;;;22.48;68.74
32452;BME280;45528;52.102;5.242;2023-07-31T06:27:01;100288.0;;;22.52;68.36
32452;BME280;45528;52.102;5.242;2023-07-31T06:30:15;100285.0;;;22.22;69.22
32452;BME280;45528;52.102;5.242;2023-07-31T06:31:52;100291.0;;;22.53;68.66
32452;BME280;45528;52.102;5.242;2023-07-31T06:33:29;100284.0;;;22.56;68.86
32452;BME280;45528;52.102;5.242;2023-07-31T06:36:43;100280.0;;;22.52;68.78
32452;BME280;45528;52.102;5.242;2023-07-31T06:38:22;100276.0;;;22.65;68.38
32452;BME280;45528;52.102;5.242;2023-07-31T06:40:01;100274.0;;;22.61;68.69
32452;BME280;45528;52.102;5.242;2023-07-31T06:41:38;100271.0;;;22.59;68.94
32452;BME280;45528;52.102;5.242;2023-07-31T06:44:52;100271.0;;;22.45;69.41
32452;BME280;45528;52.102;5.242;2023-07-31T06:46:29;100264.0;;;22.63;68.7
32452;BME280;45528;52.102;5.242;2023-07-31T06:48:05;100261.0;;;22.63;68.73
32452;BME280;45528;52.102;5.242;2023-07-31T06:51:19;100264.0;;;22.59;69.16
32452;BME280;45528;52.102;5.242;2023-07-31T06:52:55;100257.0;;;22.41;70.11
32452;BME280;45528;52.102;5.242;2023-07-31T06:54:32;100261.0;;;22.51;69.58
32452;BME280;45528;52.102;5.242;2023-07-31T06:56:08;100258.0;;;22.71;68.97
32452;BME280;45528;52.102;5.242;2023-07-31T06:59:23;100255.0;;;22.55;69.52
32452;BME280;45528;52.102;5.242;2023-07-31T07:01:00;100251.0;;;22.56;69.47
32452;BME280;45528;52.102;5.242;2023-07-31T07:02:37;100251.0;;;22.74;69.41
32452;BME280;45528;52.102;5.242;2023-07-31T07:05:51;100247.0;;;22.86;68.94
32452;BME280;45528;52.102;5.242;2023-07-31T07:07:28;100246.0;;;22.71;69.91
32452;BME280;45528;52.102;5.242;2023-07-31T07:09:05;100241.0;;;22.82;69.0
32452;BME280;45528;52.102;5.242;2023-07-31T07:12:18;100242.0;;;22.88;69.02
32452;BME280;45528;52.102;5.242;2023-07-31T07:13:55;100244.0;;;23.02;68.62
32452;BME280;45528;52.102;5.242;2023-07-31T07:15:33;100241.0;;;22.92;69.03
32452;BME280;45528;52.102;5.242;2023-07-31T07:17:09;100241.0;;;22.92;68.94
32452;BME280;45528;52.102;5.242;2023-07-31T07:20:23;100239.0;;;22.71;69.83
32452;BME280;45528;52.102;5.242;2023-07-31T07:22:01;100245.0;;;23.03;68.99
32452;BME280;45528;52.102;5.242;2023-07-31T07:23:38;100246.0;;;22.73;70.31
32452;BME280;45528;52.102;5.242;2023-07-31T07:26:51;100253.0;;;22.57;70.05
32452;BME280;45528;52.102;5.242;2023-07-31T07:28:28;100242.0;;;22.94;69.34
32452;BME280;45528;52.102;5.242;2023-07-31T07:30:06;100251.0;;;22.61;70.13
32452;BME280;45528;52.102;5.242;2023-07-31T07:31:43;100247.0;;;22.59;70.52
32452;BME280;45528;52.102;5.242;2023-07-31T07:34:57;100240.0;;;22.87;69.74
32452;BME280;45528;52.102;5.242;2023-07-31T07:36:33;100244.0;;;23.06;69.05
32452;BME280;45528;52.102;5.242;2023-07-31T07:38:13;100236.0;;;23.01;69.22
32452;BME280;45528;52.102;5.242;2023-07-31T07:41:26;100249.0;;;22.93;69.8
32452;BME280;45528;52.102;5.242;2023-07-31T07:43:03;100247.0;;;22.89;69.78
32452;BME280;45528;52.102;5.242;2023-07-31T07:44:39;100240.0;;;22.78;69.83
32452;BME280;45528;52.102;5.242;2023-07-31T07:47:52;100239.0;;;22.85;70.27
32452;BME280;45528;52.102;5.242;2023-07-31T07:49:30;100240.0;;;22.98;69.94
32452;BME280;45528;52.102;5.242;2023-07-31T07:51:08;100240.0;;;22.96;70.12
32452;BME280;45528;52.102;5.242;2023-07-31T07:52:45;100240.0;;;23.12;69.47
32452;BME280;45528;52.102;5.242;2023-07-31T07:55:59;100235.0;;;23.14;69.47
32452;BME280;45528;52.102;5.242;2023-07-31T07:57:36;100235.0;;;23.16;69.36
32452;BME280;45528;52.102;5.242;2023-07-31T07:59:12;100233.0;;;22.77;70.27
32452;BME280;45528;52.102;5.242;2023-07-31T08:02:26;100224.0;;;22.71;71.36
32452;BME280;45528;52.102;5.242;2023-07-31T08:04:03;100228.0;;;23.05;70.24
32452;BME280;45528;52.102;5.242;2023-07-31T08:05:40;100231.0;;;23.24;69.64
32452;BME280;45528;52.102;5.242;2023-07-31T08:07:16;100221.0;;;23.24;69.77
32452;BME280;45528;52.102;5.242;2023-07-31T08:10:31;100219.0;;;22.69;71.24
32452;BME280;45528;52.102;5.242;2023-07-31T08:12:08;100222.0;;;23.35;69.47
32452;BME280;45528;52.102;5.242;2023-07-31T08:13:46;100219.0;;;23.23;69.87
32452;BME280;45528;52.102;5.242;2023-07-31T08:17:00;100218.0;;;23.44;68.77
32452;BME280;45528;52.102;5.242;2023-07-31T08:18:37;100215.0;;;23.24;69.8
32452;BME280;45528;52.102;5.242;2023-07-31T08:20:15;100211.0;;;23.21;70.11
32452;BME280;45528;52.102;5.242;2023-07-31T08:23:29;100222.0;;;23.22;69.69
32452;BME280;45528;52.102;5.242;2023-07-31T08:25:06;100206.0;;;23.24;69.69
32452;BME280;45528;52.102;5.242;2023-07-31T08:26:43;100208.0;;;23.16;70.16
32452;BME280;45528;52.102;5.242;2023-07-31T08:28:20;100205.0;;;23.21;70.41
32452;BME280;45528;52.102;5.242;2023-07-31T08:31:35;100206.0;;;23.29;69.99
32452;BME280;45528;52.102;5.242;2023-07-31T08:33:12;100205.0;;;23.26;70.55
32452;BME280;45528;52.102;5.242;2023-07-31T08:34:48;100199.0;;;23.18;70.64
32452;BME280;45528;52.102;5.242;2023-07-31T08:38:02;100205.0;;;23.08;70.98
32452;BME280;45528;52.102;5.242;2023-07-31T08:39:39;100205.0;;;23.22;71.05
32452;BME280;45528;52.102;5.242;2023-07-31T08:41:17;100210.0;;;23.32;70.72
32452;BME280;45528;52.102;5.242;2023-07-31T08:42:55;100205.0;;;23.34;70.27
32452;BME280;45528;52.102;5.242;2023-07-31T08:46:10;100200.0;;;23.24;70.81
32452;BME280;45528;52.102;5.242;2023-07-31T08:47:50;100206.0;;;23.5;70.27
32452;BME280;45528;52.102;5.242;2023-07-31T08:49:27;100205.0;;;23.61;69.48
32452;BME280;45528;52.102;5.242;2023-07-31T08:52:46;100209.0;;;23.6;69.58
32452;BME280;45528;52.102;5.242;2023-07-31T08:54:23;100205.0;;;23.41;70.45
32452;BME280;45528;52.102;5.242;2023-07-31T08:56:01;100209.0;;;23.69;69.66
32452;BME280;45528;52.102;5.242;2023-07-31T08:57:39;100207.0;;;23.77;69.3
32452;BME280;45528;52.102;5.242;2023-07-31T09:00:59;100201.0;;;23.45;70.5
32452;BME280;45528;52.102;5.242;2023-07-31T09:02:45;100210.0;;;23.5;70.44
32452;BME280;45528;52.102;5.242;2023-07-31T09:04:28;100205.0;;;23.25;71.58
32452;BME280;45528;52.102;5.242;2023-07-31T09:06:06;100207.0;;;23.77;69.58
32452;BME280;45528;52.102;5.242;2023-07-31T09:09:23;100209.0;;;23.9;69.3
32452;BME280;45528;52.102;5.242;2023-07-31T09:11:00;100214.0;;;23.71;69.69
32452;BME280;45528;52.102;5.242;2023-07-31T09:12:37;100217.0;;;23.41;70.77
32452;BME280;45528;52.102;5.242;2023-07-31T09:14:17;100210.0;;;23.4;70.94
32452;BME280;45528;52.102;5.242;2023-07-31T09:17:33;100215.0;;;23.79;69.17
32452;BME280;45528;52.102;5.242;2023-07-31T09:19:10;100205.0;;;23.71;69.74
32452;BME280;45528;52.102;5.242;2023-07-31T09:21:00;100205.0;;;23.87;69.66
32452;BME280;45528;52.102;5.242;2023-07-31T09:22:36;100202.0;;;23.89;69.7
32452;BME280;45528;52.102;5.242;2023-07-31T09:26:01;100200.0;;;23.91;69.97
32452;BME280;45528;52.102;5.242;2023-07-31T09:27:46;100205.0;;;23.63;70.92
32452;BME280;45528;52.102;5.242;2023-07-31T09:29:23;100209.0;;;23.8;70.3
32452;BME280;45528;52.102;5.242;2023-07-31T09:31:01;100189.0;;;23.73;70.72
32452;BME280;45528;52.102;5.242;2023-07-31T09:34:14;100183.0;;;23.67;71.33
32452;BME280;45528;52.102;5.242;2023-07-31T09:35:52;100192.0;;;23.98;70.11
32452;BME280;45528;52.102;5.242;2023-07-31T09:37:29;100189.0;;;23.93;70.5
32452;BME280;45528;52.102;5.242;2023-07-31T09:40:47;100192.0;;;24.2;69.41
32452;BME280;45528;52.102;5.242;2023-07-31T09:42:25;100193.0;;;24.09;69.23
32452;BME280;45528;52.102;5.242;2023-07-31T09:44:03;100195.0;;;24.17;69.19
32452;BME280;45528;52.102;5.242;2023-07-31T09:45:41;100196.0;;;24.05;69.69
32452;BME280;45528;52.102;5.242;2023-07-31T09:49:10;100192.0;;;23.87;70.19
32452;BME280;45528;52.102;5.242;2023-07-31T09:50:48;100191.0;;;24.2;69.33
32452;BME280;45528;52.102;5.242;2023-07-31T09:52:26;100188.0;;;24.15;69.08
32452;BME280;45528;52.102;5.242;2023-07-31T09:54:03;100203.0;;;23.9;70.45
32452;BME280;45528;52.102;5.242;2023-07-31T09:57:21;100190.0;;;24.12;69.62
32452;BME280;45528;52.102;5.242;2023-07-31T09:58:58;100199.0;;;24.06;69.95
32452;BME280;45528;52.102;5.242;2023-07-31T10:00:35;100192.0;;;24.08;70.24
32452;BME280;45528;52.102;5.242;2023-07-31T10:03:57;100190.0;;;24.19;69.84
32452;BME280;45528;52.102;5.242;2023-07-31T10:05:36;100196.0;;;24.26;69.27
32452;BME280;45528;52.102;5.242;2023-07-31T10:07:17;100192.0;;;24.35;69.23
32452;BME280;45528;52.102;5.242;2023-07-31T10:08:54;100183.0;;;24.27;69.02
32452;BME280;45528;52.102;5.242;2023-07-31T10:12:14;100187.0;;;23.91;70.52
32452;BME280;45528;52.102;5.242;2023-07-31T10:13:54;100190.0;;;24.08;69.58
32452;BME280;45528;52.102;5.242;2023-07-31T10:15:32;100197.0;;;24.12;69.25
32452;BME280;45528;52.102;5.242;2023-07-31T10:17:10;100190.0;;;24.0;69.75
32452;BME280;45528;52.102;5.242;2023-07-31T10:20:26;100191.0;;;24.12;69.27
32452;BME280;45528;52.102;5.242;2023-07-31T10:22:05;100190.0;;;23.82;70.48
32452;BME280;45528;52.102;5.242;2023-07-31T10:23:44;100191.0;;;23.89;70.14
32452;BME280;45528;52.102;5.242;2023-07-31T10:25:22;100191.0;;;24.02;69.94
32452;BME280;45528;52.102;5.242;2023-07-31T10:28:38;100193.0;;;24.02;69.91
32452;BME280;45528;52.102;5.242;2023-07-31T10:30:16;100197.0;;;23.95;70.11
32452;BME280;45528;52.102;5.242;2023-07-31T10:31:56;100189.0;;;24.09;69.44
32452;BME280;45528;52.102;5.242;2023-07-31T10:35:11;100193.0;;;24.08;69.91
32452;BME280;45528;52.102;5.242;2023-07-31T10:36:48;100184.0;;;23.83;70.44
32452;BME280;45528;52.102;5.242;2023-07-31T10:38:25;100187.0;;;24.24;69.19
32452;BME280;45528;52.102;5.242;2023-07-31T10:40:03;100180.0;;;24.16;69.69
32452;BME280;45528;52.102;5.242;2023-07-31T10:43:25;100181.0;;;24.27;69.52
32452;BME280;45528;52.102;5.242;2023-07-31T10:45:04;100191.0;;;24.2;69.66
32452;BME280;45528;52.102;5.242;2023-07-31T10:46:42;100189.0;;;24.28;69.75
32452;BME280;45528;52.102;5.242;2023-07-31T10:48:21;100188.0;;;24.01;70.7
32452;BME280;45528;52.102;5.242;2023-07-31T10:52:10;100187.0;;;23.95;70.8
32452;BME280;45528;52.102;5.242;2023-07-31T10:53:48;100190.0;;;24.29;69.36
32452;BME280;45528;52.102;5.242;2023-07-31T10:55:27;100191.0;;;24.24;69.02
32452;BME280;45528;52.102;5.242;2023-07-31T10:57:18;100184.0;;;23.98;70.19
32452;BME280;45528;52.102;5.242;2023-07-31T10:59:00;100189.0;;;24.32;69.45
32452;BME280;45528;52.102;5.242;2023-07-31T11:02:25;100175.0;;;23.92;71.41
32452;BME280;45528;52.102;5.242;2023-07-31T11:04:10;100187.0;;;24.16;69.97
32452;BME280;45528;52.102;5.242;2023-07-31T11:05:49;100182.0;;;24.02;70.44